24 Sep 2020 08:34 UTC 2020268+08:34 UTC

Overview Datums Bench Marks Data Query Site Visit Daily QC Messages Attributes

130: GBRA Station #2

28° 24' 26" N   96° 42' 43" W
GBRA2
Guadalupe Blanco River Authority (GBRA) GBRA

Station Information

GBRA Station #2
GBRA Station #2
more pictures
 
Station Name:GBRA Station #2
DNR ID:130
Location:28° 24' 26" N, 96° 42' 43" W

Water Level Forecasts

Latest Observations

Series Metric English Marine Observed at
Water Temperature 24.4 °C 75.9 °F 75.9 °F Sep 24 03:18 CDT
00h06m ago
Salinity 21.400 psu 21.400 psu 21.400 psu Sep 24 03:18 CDT
00h06m ago

Maps

GBRA Station #2
All Stations in Area
Entire Network
 

Recent Observations

Date/Time Water
Temp (°F)
Sal (psu)
Sep 24 02:00 CDT 76.3 21.400
Sep 24 01:00 CDT 76.5 21.400
Sep 24 00:00 CDT 76.6 21.400
Sep 23 23:00 CDT 76.8 21.400
Sep 23 22:00 CDT 76.8 21.400
Sep 23 21:00 CDT 76.8 21.300
Sep 23 20:00 CDT 77.2 21.400
Sep 23 19:00 CDT 77.2 21.300
Sep 23 18:00 CDT 77.2 21.300
Sep 23 16:00 CDT 77.0 21.300
Sep 23 15:00 CDT 76.8 21.400
Sep 23 14:00 CDT 76.6 21.400
Sep 23 13:00 CDT 76.6 21.600
Sep 23 12:00 CDT 76.3 21.600
Sep 23 11:00 CDT 75.4 21.700
Sep 23 10:00 CDT 75.2 21.100
Sep 23 09:00 CDT 75.2 21.800
Sep 23 08:00 CDT 75.0 21.900
Sep 23 07:00 CDT 75.0 22.000
Sep 23 06:00 CDT 75.0 21.900
Sep 23 05:00 CDT 75.4 21.900
Sep 23 04:00 CDT 75.6 22.100
Sep 23 03:00 CDT 75.2 21.600

Historical Data Availability